createdAt,value
2019-05-12T00:00:23.115Z,5.30
2019-05-12T00:02:52.105Z,7.73
2019-05-12T00:05:21.093Z,8.93
2019-05-12T00:07:50.060Z,7.63
2019-05-12T00:10:19.072Z,10.13
2019-05-12T00:12:48.576Z,13.33
2019-05-12T00:15:19.179Z,7.27
2019-05-12T00:17:48.772Z,7.60
2019-05-12T00:20:18.515Z,3.30
2019-05-12T00:22:51.071Z,5.10
2019-05-12T00:25:20.027Z,8.17
2019-05-12T00:27:49.061Z,7.50
2019-05-12T00:30:38.916Z,3.57
2019-05-12T00:33:09.272Z,6.27
2019-05-12T00:35:38.584Z,7.20
2019-05-12T00:38:08.972Z,8.53
2019-05-12T00:40:39.509Z,5.00
2019-05-12T00:43:09.271Z,4.63
2019-05-12T00:45:38.899Z,5.43
2019-05-12T00:48:09.351Z,5.30
2019-05-12T00:50:38.764Z,3.80
2019-05-12T00:53:08.999Z,6.43
2019-05-12T00:55:38.586Z,5.97
2019-05-12T00:58:08.802Z,6.20
2019-05-12T01:00:40.410Z,6.57
2019-05-12T01:03:09.116Z,6.97
2019-05-12T01:05:38.483Z,8.43
2019-05-12T01:08:09.019Z,7.23
2019-05-12T01:10:39.108Z,3.73
2019-05-12T01:13:08.793Z,7.13
2019-05-12T01:15:38.250Z,5.63
2019-05-12T01:18:09.357Z,4.20
2019-05-12T01:20:39.115Z,7.37
2019-05-12T01:23:08.717Z,6.17
2019-05-12T01:25:39.697Z,5.07
2019-05-12T01:28:08.671Z,6.40
2019-05-12T01:30:38.991Z,6.23
2019-05-12T01:33:08.908Z,5.37
2019-05-12T01:35:38.957Z,3.67
2019-05-12T01:38:08.462Z,5.33
2019-05-12T01:40:39.471Z,6.00
2019-05-12T01:43:08.827Z,4.67
2019-05-12T01:45:38.388Z,5.53
2019-05-12T01:48:08.827Z,3.87
2019-05-12T01:50:38.818Z,5.10
2019-05-12T01:53:08.589Z,8.50
2019-05-12T01:55:38.639Z,4.30
2019-05-12T01:58:08.458Z,4.13
2019-05-12T02:00:38.788Z,5.27
2019-05-12T02:03:09.114Z,4.60
2019-05-12T02:05:40.526Z,7.80
2019-05-12T02:08:13.160Z,5.17
2019-05-12T02:10:42.106Z,10.77
2019-05-12T02:13:10.955Z,7.37
2019-05-12T02:15:39.874Z,3.30
2019-05-12T02:18:09.305Z,6.43
2019-05-12T02:20:38.449Z,8.90
2019-05-12T02:23:08.983Z,14.00
2019-05-12T02:25:38.445Z,6.80
2019-05-12T02:28:09.332Z,5.63
2019-05-12T02:30:41.605Z,7.93
2019-05-12T02:33:08.802Z,6.97
2019-05-12T02:35:38.056Z,6.37
2019-05-12T02:38:07.066Z,6.80
2019-05-12T02:40:36.414Z,5.17
2019-05-12T02:43:05.975Z,5.33
2019-05-12T02:45:36.073Z,9.50
2019-05-12T02:48:05.707Z,6.00
2019-05-12T02:50:37.365Z,4.97
2019-05-12T02:53:06.998Z,5.93
2019-05-12T02:55:36.262Z,4.83
2019-05-12T02:58:07.125Z,8.63
2019-05-12T03:00:36.874Z,5.30
2019-05-12T03:03:08.559Z,7.50
2019-05-12T03:05:39.049Z,8.80
2019-05-12T03:08:08.030Z,5.10
2019-05-12T03:10:37.108Z,8.13
2019-05-12T03:13:06.137Z,4.43
2019-05-12T03:15:37.103Z,5.70
2019-05-12T03:18:06.896Z,6.30
2019-05-12T03:20:36.273Z,7.13
2019-05-12T03:23:06.461Z,9.93
2019-05-12T03:25:37.074Z,5.00
2019-05-12T03:28:08.888Z,4.27
2019-05-12T03:30:39.955Z,9.10
2019-05-12T03:33:10.780Z,7.47
2019-05-12T03:35:43.771Z,14.33
2019-05-12T03:38:09.395Z,4.87
2019-05-12T03:40:39.063Z,3.83
2019-05-12T03:43:08.074Z,8.40
2019-05-12T03:45:37.162Z,11.10
2019-05-12T03:48:06.473Z,7.93
2019-05-12T03:50:36.365Z,5.23
2019-05-12T03:53:10.332Z,7.23
2019-05-12T03:55:41.846Z,5.70
2019-05-12T03:58:07.615Z,6.93
2019-05-12T04:00:36.741Z,5.57
2019-05-12T04:03:06.208Z,7.10
2019-05-12T04:05:35.846Z,6.33
2019-05-12T04:08:05.823Z,11.70
2019-05-12T04:10:36.051Z,8.60
2019-05-12T04:13:05.565Z,9.23
2019-05-12T04:15:35.466Z,10.03
2019-05-12T04:18:06.151Z,6.77
2019-05-12T04:20:36.213Z,9.60
2019-05-12T04:23:06.703Z,10.80
2019-05-12T04:25:51.102Z,6.37
2019-05-12T04:28:06.688Z,10.93
2019-05-12T04:30:36.073Z,11.17
2019-05-12T04:33:05.644Z,7.07
2019-05-12T04:35:35.750Z,10.23
2019-05-12T04:38:05.468Z,11.93
2019-05-12T04:40:36.477Z,9.97
2019-05-12T04:43:06.427Z,9.57
2019-05-12T04:45:36.118Z,10.00
2019-05-12T04:48:06.127Z,11.87
2019-05-12T04:50:36.359Z,5.23
2019-05-12T04:53:06.597Z,8.60
2019-05-12T04:55:36.621Z,8.23
2019-05-12T04:58:06.103Z,7.60
2019-05-12T05:00:36.018Z,8.60
2019-05-12T05:03:05.785Z,7.07
2019-05-12T05:05:36.066Z,8.10
2019-05-12T05:08:05.565Z,9.33
2019-05-12T05:10:34.963Z,7.57
2019-05-12T05:13:05.754Z,10.80
2019-05-12T05:15:35.549Z,11.07
2019-05-12T05:18:06.685Z,7.63
2019-05-12T05:20:35.307Z,7.53
2019-05-12T05:23:04.424Z,5.90
2019-05-12T05:25:34.310Z,12.13
2019-05-12T05:28:04.078Z,8.90
2019-05-12T05:30:34.042Z,10.53
2019-05-12T05:33:04.645Z,9.17
2019-05-12T05:35:39.342Z,10.43
2019-05-12T05:38:05.264Z,10.30
2019-05-12T05:40:35.625Z,9.93
2019-05-12T05:43:12.393Z,9.90
2019-05-12T05:45:35.681Z,12.83
2019-05-12T05:48:09.682Z,7.80
2019-05-12T05:50:35.334Z,12.63
2019-05-12T05:53:04.432Z,7.80
2019-05-12T05:55:34.588Z,7.70
2019-05-12T05:58:10.355Z,8.00
2019-05-12T06:00:39.088Z,10.47
2019-05-12T06:03:05.929Z,8.90
2019-05-12T06:05:38.457Z,6.90
2019-05-12T06:08:09.419Z,8.83
2019-05-12T06:10:40.432Z,8.47
2019-05-12T06:13:07.125Z,4.97
2019-05-12T06:15:40.591Z,7.00
2019-05-12T06:18:06.826Z,9.90
2019-05-12T06:20:38.098Z,11.43
2019-05-12T06:23:06.451Z,7.50
2019-05-12T06:25:46.262Z,6.97
2019-05-12T06:28:08.702Z,9.53
2019-05-12T06:30:44.280Z,8.27
2019-05-12T06:33:07.336Z,8.27
2019-05-12T06:35:40.828Z,8.67
2019-05-12T06:38:06.849Z,9.43
2019-05-12T06:40:40.693Z,11.87
2019-05-12T06:43:06.585Z,10.83
2019-05-12T06:45:41.854Z,9.40
2019-05-12T06:48:06.259Z,11.17
2019-05-12T06:50:39.103Z,10.27
2019-05-12T06:53:05.852Z,9.70
2019-05-12T06:55:39.008Z,10.17
2019-05-12T06:58:05.833Z,7.57
2019-05-12T07:00:35.375Z,10.17
2019-05-12T07:03:04.718Z,5.67
2019-05-12T07:05:38.366Z,8.63
2019-05-12T07:08:04.740Z,8.20
2019-05-12T07:10:39.349Z,7.67
2019-05-12T07:13:06.024Z,4.00
2019-05-12T07:15:40.169Z,11.27
2019-05-12T07:18:10.226Z,5.77
2019-05-12T07:20:39.575Z,9.07
2019-05-12T07:23:08.662Z,5.23
2019-05-12T07:25:37.566Z,2.70
2019-05-12T07:28:07.947Z,5.43
2019-05-12T07:30:37.194Z,4.10
2019-05-12T07:33:06.225Z,6.07
2019-05-12T07:35:35.728Z,2.87
2019-05-12T07:38:05.203Z,6.67
2019-05-12T07:40:37.348Z,6.40
2019-05-12T07:43:10.018Z,2.60
2019-05-12T07:45:35.853Z,4.27
2019-05-12T07:48:08.735Z,2.40
2019-05-12T07:50:35.314Z,2.23
2019-05-12T07:53:04.654Z,5.23
2019-05-12T07:55:34.239Z,2.43
2019-05-12T07:58:10.248Z,1.70
2019-05-12T08:00:34.218Z,6.20
2019-05-12T08:03:08.109Z,4.60
2019-05-12T08:05:34.041Z,4.40
2019-05-12T08:08:08.727Z,2.87
2019-05-12T08:10:34.464Z,3.67
2019-05-12T08:13:04.406Z,5.83
2019-05-12T08:15:34.220Z,4.20
2019-05-12T08:18:07.511Z,1.43
2019-05-12T08:20:34.563Z,5.40
2019-05-12T08:23:08.620Z,3.23
2019-05-12T08:25:34.993Z,3.17
2019-05-12T08:28:14.119Z,4.80
2019-05-12T08:30:40.430Z,6.57
2019-05-12T08:33:09.680Z,7.27
2019-05-12T08:35:38.482Z,5.77
2019-05-12T08:38:07.777Z,4.53
2019-05-12T08:40:39.919Z,6.03
2019-05-12T08:43:10.185Z,4.27
2019-05-12T08:45:38.229Z,5.43
2019-05-12T08:48:10.421Z,1.83
2019-05-12T08:50:37.931Z,3.03
2019-05-12T08:53:12.274Z,3.75
2019-05-12T08:55:38.577Z,2.93
2019-05-12T08:58:07.386Z,1.40
2019-05-12T09:00:45.346Z,3.15
2019-05-12T09:03:09.405Z,1.63
2019-05-12T09:05:39.250Z,3.35
2019-05-12T09:08:08.198Z,2.63
2019-05-12T09:10:37.126Z,4.12
2019-05-12T09:13:05.973Z,4.75
2019-05-12T09:15:35.323Z,1.98
2019-05-12T09:18:04.993Z,1.85
2019-05-12T09:20:39.412Z,2.77
2019-05-12T09:23:05.216Z,3.45
2019-05-12T09:25:39.001Z,2.85
2019-05-12T09:28:04.988Z,2.05
2019-05-12T09:30:33.959Z,2.95
2019-05-12T09:33:03.993Z,4.35
2019-05-12T09:35:39.063Z,3.37
2019-05-12T09:38:06.207Z,2.30
2019-05-12T09:40:35.928Z,2.08
2019-05-12T09:43:10.496Z,1.65
2019-05-12T09:45:40.164Z,2.17
2019-05-12T09:48:09.051Z,4.80
2019-05-12T09:50:36.998Z,4.10
2019-05-12T09:53:09.850Z,1.92
2019-05-12T09:55:36.857Z,1.23
2019-05-12T09:58:05.694Z,1.77
2019-05-12T10:00:37.486Z,3.03
2019-05-12T10:03:08.427Z,3.93
2019-05-12T10:05:40.763Z,4.23
2019-05-12T10:08:06.843Z,4.23
2019-05-12T10:10:40.217Z,2.30
2019-05-12T10:13:06.413Z,2.00
2019-05-12T10:15:35.478Z,2.03
2019-05-12T10:18:09.460Z,2.03
2019-05-12T10:20:39.678Z,5.13
2019-05-12T10:23:10.188Z,2.17
2019-05-12T10:25:37.407Z,4.07
2019-05-12T10:28:11.373Z,3.50
2019-05-12T10:30:36.946Z,2.60
2019-05-12T10:33:05.983Z,6.10
2019-05-12T10:35:35.433Z,3.97
2019-05-12T10:38:10.554Z,3.27
2019-05-12T10:40:35.318Z,1.82
2019-05-12T10:43:04.837Z,2.60
2019-05-12T10:45:35.014Z,2.92
2019-05-12T10:48:04.398Z,2.65
2019-05-12T10:50:34.070Z,1.30
2019-05-12T10:53:04.680Z,1.40
2019-05-12T10:55:34.132Z,2.17
2019-05-12T10:58:06.529Z,1.63
2019-05-12T11:00:34.172Z,1.87
2019-05-12T11:03:09.725Z,2.87
2019-05-12T11:05:34.377Z,2.27
2019-05-12T11:08:11.117Z,2.00
2019-05-12T11:10:34.126Z,4.03
2019-05-12T11:13:08.381Z,1.92
2019-05-12T11:15:34.473Z,3.83
2019-05-12T11:18:25.989Z,1.45
2019-05-12T11:20:54.194Z,1.00
2019-05-12T11:23:24.447Z,1.42
2019-05-12T11:25:53.531Z,4.22
2019-05-12T11:28:24.483Z,1.65
2019-05-12T11:30:53.357Z,2.50
2019-05-12T11:33:23.799Z,1.77
2019-05-12T11:35:54.176Z,2.50
2019-05-12T11:38:24.425Z,3.58
2019-05-12T11:40:53.869Z,1.85
2019-05-12T11:43:24.813Z,1.60
2019-05-12T11:45:53.659Z,1.27
2019-05-12T11:48:23.567Z,3.35
2019-05-12T11:50:54.521Z,2.67
2019-05-12T11:53:30.341Z,1.95
2019-05-12T11:55:54.449Z,2.17
2019-05-12T11:58:23.578Z,3.33
2019-05-12T12:00:58.666Z,2.45
2019-05-12T12:03:25.129Z,2.08
2019-05-12T12:05:54.001Z,1.57
2019-05-12T12:08:26.552Z,2.70
2019-05-12T12:10:54.250Z,2.40
2019-05-12T12:13:28.370Z,1.70
2019-05-12T12:15:54.377Z,1.83
2019-05-12T12:18:23.694Z,3.05
2019-05-12T12:20:55.074Z,1.77
2019-05-12T12:23:23.309Z,1.37
2019-05-12T12:25:53.482Z,1.27
2019-05-12T12:28:24.143Z,3.47
2019-05-12T12:30:56.895Z,3.10
2019-05-12T12:33:24.158Z,2.07
2019-05-12T12:35:56.631Z,1.10
2019-05-12T12:38:23.864Z,1.30
2019-05-12T12:40:53.675Z,1.15
2019-05-12T12:43:24.686Z,1.50
2019-05-12T12:45:58.483Z,1.65
2019-05-12T12:48:29.814Z,2.90
2019-05-12T12:50:58.013Z,1.65
2019-05-12T12:53:27.645Z,2.17
2019-05-12T12:55:58.624Z,0.93
2019-05-12T12:58:31.249Z,1.20
2019-05-12T13:00:58.451Z,1.55
2019-05-12T13:03:29.841Z,3.98
2019-05-12T13:05:57.989Z,2.08
2019-05-12T13:08:26.921Z,1.10
2019-05-12T13:10:55.838Z,2.43
2019-05-12T13:13:24.759Z,1.67
2019-05-12T13:15:53.701Z,2.20
2019-05-12T13:18:25.814Z,1.13
2019-05-12T13:20:53.966Z,4.83
2019-05-12T13:23:34.803Z,1.10
2019-05-12T13:25:54.776Z,3.10
2019-05-12T13:28:25.972Z,2.20
2019-05-12T13:31:07.911Z,1.77
2019-05-12T13:33:25.787Z,1.37
2019-05-12T13:35:55.573Z,1.10
2019-05-12T13:38:25.309Z,2.97
2019-05-12T13:40:54.310Z,2.97
2019-05-12T13:43:23.735Z,1.23
2019-05-12T13:45:53.476Z,3.13
2019-05-12T13:48:24.045Z,1.83
2019-05-12T13:50:54.310Z,2.00
2019-05-12T13:53:24.359Z,1.30
2019-05-12T13:55:54.317Z,2.20
2019-05-12T13:58:28.295Z,0.90
2019-05-12T14:01:10.381Z,1.50
2019-05-12T14:03:27.785Z,1.40
2019-05-12T14:05:55.614Z,2.47
2019-05-12T14:08:24.423Z,2.13
2019-05-12T14:10:58.679Z,1.30
2019-05-12T14:13:24.610Z,1.30
2019-05-12T14:15:53.831Z,3.87
2019-05-12T14:18:22.752Z,2.17
2019-05-12T14:20:58.508Z,1.30
2019-05-12T14:23:24.015Z,2.03
2019-05-12T14:25:54.300Z,2.90
2019-05-12T14:28:23.793Z,2.53
2019-05-12T14:30:54.491Z,3.37
2019-05-12T14:33:24.646Z,2.10
2019-05-12T14:35:54.067Z,1.73
2019-05-12T14:38:27.473Z,4.53
2019-05-12T14:40:53.708Z,3.03
2019-05-12T14:43:24.053Z,1.57
2019-05-12T14:45:54.163Z,1.73
2019-05-12T14:48:23.410Z,1.20
2019-05-12T14:50:53.563Z,1.40
2019-05-12T14:53:23.768Z,1.30
2019-05-12T14:55:53.670Z,1.73
2019-05-12T14:58:23.658Z,2.00
2019-05-12T15:00:56.442Z,1.50
2019-05-12T15:03:24.190Z,1.57
2019-05-12T15:05:54.559Z,1.10
2019-05-12T15:08:35.530Z,1.67
2019-05-12T15:10:55.179Z,1.27
2019-05-12T15:13:24.222Z,1.07
2019-05-12T15:15:56.103Z,1.67
2019-05-12T15:18:23.875Z,1.07
2019-05-12T15:20:54.445Z,1.37
2019-05-12T15:23:32.684Z,2.03
2019-05-12T15:25:54.682Z,1.40
2019-05-12T15:28:23.790Z,2.20
2019-05-12T15:30:54.211Z,2.10
2019-05-12T15:33:24.307Z,1.57
2019-05-12T15:35:54.721Z,2.87
2019-05-12T15:38:24.141Z,5.60
2019-05-12T15:40:53.764Z,6.57
2019-05-12T15:43:24.451Z,1.47
2019-05-12T15:45:57.404Z,4.23
2019-05-12T15:48:26.108Z,2.30
2019-05-12T15:50:59.377Z,1.60
2019-05-12T15:53:27.013Z,2.03
2019-05-12T15:55:56.283Z,1.50
2019-05-12T15:58:25.345Z,1.83
2019-05-12T16:00:57.626Z,2.80
2019-05-12T16:03:26.385Z,1.30
2019-05-12T16:05:55.729Z,4.80
2019-05-12T16:08:24.617Z,1.27
2019-05-12T16:10:53.588Z,2.23
2019-05-12T16:13:24.462Z,1.60
2019-05-12T16:15:57.536Z,2.87
2019-05-12T16:18:26.610Z,4.53
2019-05-12T16:20:58.940Z,2.50
2019-05-12T16:23:29.993Z,1.50
2019-05-12T16:26:01.303Z,1.53
2019-05-12T16:28:27.838Z,1.20
2019-05-12T16:30:58.790Z,3.27
2019-05-12T16:33:27.606Z,3.23
2019-05-12T16:35:59.956Z,1.20
2019-05-12T16:38:27.386Z,2.10
2019-05-12T16:40:56.334Z,2.50
2019-05-12T16:43:29.377Z,2.10
2019-05-12T16:45:55.980Z,1.90
2019-05-12T16:48:32.834Z,1.43
2019-05-12T16:50:55.437Z,1.60
2019-05-12T16:53:27.827Z,1.97
2019-05-12T16:55:54.942Z,2.97
2019-05-12T16:58:32.594Z,3.90
2019-05-12T17:00:54.822Z,5.20
2019-05-12T17:03:23.892Z,1.60
2019-05-12T17:05:55.713Z,1.30
2019-05-12T17:08:24.056Z,6.00
2019-05-12T17:11:00.948Z,2.37
2019-05-12T17:13:23.842Z,1.73
2019-05-12T17:15:57.759Z,1.53
2019-05-12T17:18:24.744Z,1.67
2019-05-12T17:20:54.732Z,2.07
2019-05-12T17:23:24.684Z,1.27
2019-05-12T17:25:54.049Z,4.40
2019-05-12T17:28:23.836Z,3.17
2019-05-12T17:30:54.464Z,6.43
2019-05-12T17:33:27.433Z,1.30
2019-05-12T17:35:54.313Z,3.07
2019-05-12T17:38:25.334Z,2.57
2019-05-12T17:40:58.802Z,1.43
2019-05-12T17:43:24.881Z,1.90
2019-05-12T17:45:59.522Z,1.10
2019-05-12T17:48:24.509Z,1.83
2019-05-12T17:50:53.927Z,1.27
2019-05-12T17:53:24.089Z,3.27
2019-05-12T17:55:55.785Z,2.00
2019-05-12T17:58:29.702Z,1.70
2019-05-12T18:00:55.576Z,3.03
2019-05-12T18:03:25.706Z,1.23
2019-05-12T18:05:54.922Z,2.00
2019-05-12T18:08:32.307Z,1.67
2019-05-12T18:10:54.841Z,1.60
2019-05-12T18:13:27.337Z,1.80
2019-05-12T18:15:54.331Z,2.17
2019-05-12T18:18:32.384Z,1.13
2019-05-12T18:20:55.711Z,2.73
2019-05-12T18:23:27.770Z,1.40
2019-05-12T18:25:55.323Z,4.10
2019-05-12T18:28:27.696Z,1.70
2019-05-12T18:30:54.886Z,2.43
2019-05-12T18:33:33.496Z,1.20
2019-05-12T18:35:54.762Z,1.30
2019-05-12T18:38:26.604Z,1.77
2019-05-12T18:40:54.648Z,2.40
2019-05-12T18:43:24.320Z,1.27
2019-05-12T18:45:56.587Z,1.90
2019-05-12T18:48:25.291Z,2.37
2019-05-12T18:50:54.559Z,2.40
2019-05-12T18:53:31.382Z,0.83
2019-05-12T18:55:55.295Z,6.47
2019-05-12T18:58:30.712Z,1.37
2019-05-12T19:00:54.982Z,1.57
2019-05-12T19:03:25.566Z,3.13
2019-05-12T19:05:58.123Z,1.93
2019-05-12T19:08:26.557Z,3.33
2019-05-12T19:10:55.483Z,2.30
2019-05-12T19:13:24.986Z,1.83
2019-05-12T19:16:02.622Z,1.23
2019-05-12T19:18:32.323Z,4.07
2019-05-12T19:20:55.927Z,1.37
2019-05-12T19:23:26.886Z,1.30
2019-05-12T19:25:55.610Z,1.97
2019-05-12T19:28:24.661Z,2.00
2019-05-12T19:30:54.684Z,1.10
2019-05-12T19:33:23.781Z,1.33
2019-05-12T19:35:59.874Z,1.57
2019-05-12T19:38:23.950Z,1.07
2019-05-12T19:40:56.346Z,1.73
2019-05-12T19:43:23.949Z,1.20
2019-05-12T19:46:03.042Z,2.03
2019-05-12T19:48:27.626Z,1.97
2019-05-12T19:50:57.178Z,2.40
2019-05-12T19:53:26.336Z,2.07
2019-05-12T19:55:56.516Z,2.17
2019-05-12T19:58:25.666Z,2.87
2019-05-12T20:00:54.742Z,2.77
2019-05-12T20:03:24.306Z,2.40
2019-05-12T20:05:53.944Z,5.67
2019-05-12T20:08:23.180Z,3.53
2019-05-12T20:10:54.098Z,2.10
2019-05-12T20:13:24.111Z,2.13
2019-05-12T20:15:53.358Z,1.60
2019-05-12T20:18:23.587Z,4.70
2019-05-12T20:20:54.274Z,3.30
2019-05-12T20:23:24.536Z,2.70
2019-05-12T20:25:53.925Z,3.77
2019-05-12T20:28:24.295Z,1.80
2019-05-12T20:31:01.054Z,2.07
2019-05-12T20:33:24.243Z,1.97
2019-05-12T20:35:54.678Z,3.53
2019-05-12T20:38:33.698Z,2.57
2019-05-12T20:40:54.869Z,4.97
2019-05-12T20:43:32.067Z,3.77
2019-05-12T20:45:54.514Z,4.00
2019-05-12T20:48:29.181Z,3.07
2019-05-12T20:50:54.393Z,4.47
2019-05-12T20:53:31.571Z,2.40
2019-05-12T20:55:54.850Z,3.83
2019-05-12T20:58:28.586Z,6.40
2019-05-12T21:00:54.746Z,4.47
2019-05-12T21:03:24.234Z,3.60
2019-05-12T21:05:58.054Z,4.43
2019-05-12T21:08:24.303Z,4.10
2019-05-12T21:10:54.143Z,2.83
2019-05-12T21:13:27.263Z,2.60
2019-05-12T21:15:55.029Z,3.37
2019-05-12T21:18:23.943Z,6.63
2019-05-12T21:20:54.820Z,5.70
2019-05-12T21:23:24.158Z,2.10
2019-05-12T21:25:57.971Z,3.77
2019-05-12T21:28:24.087Z,2.70
2019-05-12T21:30:53.111Z,5.47
2019-05-12T21:33:24.051Z,2.57
2019-05-12T21:35:54.597Z,2.40
2019-05-12T21:38:27.581Z,3.13
2019-05-12T21:40:54.374Z,4.23
2019-05-12T21:43:23.251Z,2.03
2019-05-12T21:45:53.707Z,2.17
2019-05-12T21:48:24.278Z,1.90
2019-05-12T21:50:55.687Z,3.00
2019-05-12T21:53:24.374Z,2.80
2019-05-12T21:55:55.150Z,3.80
2019-05-12T21:58:24.243Z,4.70
2019-05-12T22:01:03.947Z,2.33
2019-05-12T22:03:28.238Z,4.47
2019-05-12T22:05:57.302Z,3.13
2019-05-12T22:08:27.949Z,4.93
2019-05-12T22:11:00.935Z,2.63
2019-05-12T22:13:27.669Z,3.50
2019-05-12T22:15:58.880Z,3.20
2019-05-12T22:18:27.319Z,5.23
2019-05-12T22:21:01.006Z,3.43
2019-05-12T22:23:26.951Z,2.87
2019-05-12T22:26:00.209Z,2.30
2019-05-12T22:28:26.805Z,2.67
2019-05-12T22:30:55.698Z,4.77
2019-05-12T22:33:24.675Z,5.83
2019-05-12T22:36:04.708Z,3.20
2019-05-12T22:38:24.808Z,1.90
2019-05-12T22:40:56.199Z,3.93
2019-05-12T22:43:24.528Z,1.90
2019-05-12T22:45:54.777Z,3.60
2019-05-12T22:48:24.078Z,4.40
2019-05-12T22:50:54.984Z,3.53
2019-05-12T22:53:25.703Z,3.50
2019-05-12T22:55:54.665Z,2.70
2019-05-12T22:58:25.437Z,2.70
2019-05-12T23:01:00.892Z,3.30
2019-05-12T23:03:24.843Z,5.33
2019-05-12T23:06:00.055Z,2.87
2019-05-12T23:08:24.770Z,4.07
2019-05-12T23:10:56.082Z,3.07
2019-05-12T23:13:24.467Z,3.80
2019-05-12T23:15:54.061Z,2.40
2019-05-12T23:18:28.736Z,2.63
2019-05-12T23:20:54.114Z,5.50
2019-05-12T23:23:24.397Z,4.00
2019-05-12T23:26:00.115Z,3.63
2019-05-12T23:28:23.968Z,2.80
2019-05-12T23:30:53.513Z,3.50
2019-05-12T23:33:25.568Z,2.63
2019-05-12T23:35:53.593Z,5.37
2019-05-12T23:38:24.405Z,2.60
2019-05-12T23:40:53.790Z,7.10
2019-05-12T23:43:23.737Z,3.50
2019-05-12T23:45:53.303Z,3.10
2019-05-12T23:48:22.306Z,5.07
2019-05-12T23:50:51.573Z,4.20
2019-05-12T23:53:20.411Z,3.03
2019-05-12T23:55:49.386Z,4.10
2019-05-12T23:58:18.301Z,5.53
